createdAt,value
2023-03-30T00:02:31.979Z,3.57
2023-03-30T00:05:07.398Z,6.00
2023-03-30T00:07:42.671Z,4.00
2023-03-30T00:10:19.213Z,3.03
2023-03-30T00:12:54.277Z,5.93
2023-03-30T00:15:29.191Z,2.40
2023-03-30T00:18:04.137Z,6.13
2023-03-30T00:20:43.014Z,3.20
2023-03-30T00:23:19.731Z,5.63
2023-03-30T00:25:55.881Z,6.23
2023-03-30T00:28:31.694Z,1.67
2023-03-30T00:31:06.779Z,2.90
2023-03-30T00:33:46.341Z,4.53
2023-03-30T00:36:22.597Z,3.27
2023-03-30T00:38:57.554Z,5.07
2023-03-30T00:41:36.889Z,2.30
2023-03-30T00:45:07.724Z,6.33
2023-03-30T00:47:52.309Z,9.47
2023-03-30T00:50:37.659Z,8.27
2023-03-30T00:53:24.512Z,3.07
2023-03-30T00:56:01.388Z,5.73
2023-03-30T00:58:38.745Z,3.97
2023-03-30T01:01:18.845Z,2.40
2023-03-30T01:04:02.263Z,3.10
2023-03-30T01:06:40.875Z,1.70
2023-03-30T01:09:17.427Z,2.33
2023-03-30T01:11:52.440Z,4.10
2023-03-30T01:14:27.326Z,3.13
2023-03-30T01:17:29.634Z,2.97
2023-03-30T01:20:35.908Z,2.90
2023-03-30T01:23:47.009Z,4.80
2023-03-30T01:27:11.917Z,5.87
2023-03-30T01:30:31.698Z,4.47
2023-03-30T01:34:11.056Z,7.87
2023-03-30T01:37:06.276Z,5.57
2023-03-30T01:40:09.946Z,7.10
2023-03-30T01:42:58.770Z,10.60
2023-03-30T01:45:52.148Z,3.73
2023-03-30T01:48:47.695Z,4.47
2023-03-30T01:51:51.331Z,2.27
2023-03-30T01:54:35.444Z,6.77
2023-03-30T01:57:18.731Z,4.60
2023-03-30T02:00:01.279Z,8.60
2023-03-30T02:02:37.002Z,6.80
2023-03-30T02:05:17.976Z,5.97
2023-03-30T02:07:58.622Z,6.43
2023-03-30T02:10:36.190Z,4.57
2023-03-30T02:13:13.154Z,8.23
2023-03-30T02:16:02.933Z,17.70
2023-03-30T02:18:38.735Z,9.93
2023-03-30T02:21:13.774Z,4.20
2023-03-30T02:23:49.005Z,10.33
2023-03-30T02:26:24.157Z,8.10
2023-03-30T02:28:59.206Z,4.20
2023-03-30T02:31:37.171Z,5.87
2023-03-30T02:34:46.270Z,7.00
2023-03-30T02:37:36.011Z,5.60
2023-03-30T02:40:23.007Z,4.87
2023-03-30T02:43:13.281Z,5.80
2023-03-30T02:46:20.515Z,9.73
2023-03-30T02:49:07.474Z,5.83
2023-03-30T02:51:52.966Z,5.57
2023-03-30T02:54:59.659Z,6.30
2023-03-30T02:58:44.203Z,4.40
2023-03-30T03:01:51.124Z,5.97
2023-03-30T03:04:28.830Z,6.10
2023-03-30T03:07:24.624Z,6.00
2023-03-30T03:10:00.394Z,6.67
2023-03-30T03:12:36.171Z,7.27
2023-03-30T03:15:12.440Z,9.73
2023-03-30T03:17:56.918Z,8.47
2023-03-30T03:20:32.268Z,6.20
2023-03-30T03:23:09.304Z,8.23
2023-03-30T03:25:51.605Z,6.43
2023-03-30T03:28:29.720Z,4.97
2023-03-30T03:31:13.971Z,8.80
2023-03-30T03:33:50.626Z,6.10
2023-03-30T03:36:30.852Z,8.40
2023-03-30T03:39:05.775Z,6.73
2023-03-30T03:41:40.708Z,6.70
2023-03-30T03:44:16.224Z,10.30
2023-03-30T03:46:51.394Z,7.17
2023-03-30T03:49:26.494Z,8.83
2023-03-30T03:52:01.614Z,3.80
2023-03-30T03:54:36.536Z,8.13
2023-03-30T03:57:11.475Z,9.63
2023-03-30T03:59:46.674Z,9.60
2023-03-30T04:02:23.933Z,6.47
2023-03-30T04:05:01.134Z,4.57
2023-03-30T04:07:36.983Z,5.10
2023-03-30T04:10:13.234Z,7.63
2023-03-30T04:13:04.978Z,5.03
2023-03-30T04:16:00.400Z,10.83
2023-03-30T04:18:53.635Z,10.33
2023-03-30T04:22:00.895Z,8.77
2023-03-30T04:24:59.147Z,8.00
2023-03-30T04:28:05.008Z,6.67
2023-03-30T04:31:12.931Z,8.40
2023-03-30T04:34:06.368Z,4.93
2023-03-30T04:36:50.621Z,3.50
2023-03-30T04:39:45.777Z,7.37
2023-03-30T04:42:41.751Z,8.80
2023-03-30T04:45:39.989Z,8.93
2023-03-30T04:48:38.050Z,8.50
2023-03-30T04:51:31.847Z,4.23
2023-03-30T04:54:36.458Z,6.00
2023-03-30T04:57:34.323Z,6.30
2023-03-30T05:00:35.033Z,4.97
2023-03-30T05:03:28.518Z,8.30
2023-03-30T05:06:04.096Z,6.20
2023-03-30T05:08:48.531Z,4.50
2023-03-30T05:11:46.832Z,11.60
2023-03-30T05:15:01.014Z,8.27
2023-03-30T05:17:51.698Z,8.17
2023-03-30T05:20:59.814Z,9.03
2023-03-30T05:24:01.375Z,6.30
2023-03-30T05:27:07.021Z,4.53
2023-03-30T05:29:54.223Z,6.27
2023-03-30T05:32:49.351Z,6.30
2023-03-30T05:35:43.153Z,5.47
2023-03-30T05:38:42.011Z,6.30
2023-03-30T05:41:50.760Z,7.17
2023-03-30T05:44:54.790Z,8.57
2023-03-30T05:47:48.509Z,5.57
2023-03-30T05:50:48.273Z,10.17
2023-03-30T05:53:36.501Z,8.30
2023-03-30T05:56:32.935Z,9.00
2023-03-30T05:59:27.377Z,8.00
2023-03-30T06:02:21.438Z,17.73
2023-03-30T06:04:57.577Z,5.90
2023-03-30T06:07:32.782Z,15.87
2023-03-30T06:10:08.354Z,12.13
2023-03-30T06:12:43.780Z,4.77
2023-03-30T06:15:33.712Z,9.17
2023-03-30T06:18:17.951Z,8.30
2023-03-30T06:21:02.911Z,7.03
2023-03-30T06:23:38.392Z,12.53
2023-03-30T06:26:17.800Z,6.50
2023-03-30T06:28:55.173Z,9.10
2023-03-30T06:31:30.574Z,6.20
2023-03-30T06:34:28.042Z,11.07
2023-03-30T06:37:03.467Z,7.77
2023-03-30T06:39:38.604Z,7.00
2023-03-30T06:42:14.425Z,13.97
2023-03-30T06:45:09.162Z,7.90
2023-03-30T06:47:46.188Z,7.03
2023-03-30T06:50:21.462Z,6.97
2023-03-30T06:52:56.531Z,7.53
2023-03-30T06:55:33.052Z,5.73
2023-03-30T06:58:10.219Z,8.70
2023-03-30T07:00:45.574Z,10.17
2023-03-30T07:03:48.922Z,8.00
2023-03-30T07:06:36.187Z,5.23
2023-03-30T07:09:12.886Z,4.97
2023-03-30T07:11:48.284Z,8.07
2023-03-30T07:14:23.318Z,8.20
2023-03-30T07:16:58.586Z,11.47
2023-03-30T07:19:33.642Z,12.10
2023-03-30T07:22:09.676Z,11.43
2023-03-30T07:24:45.981Z,14.07
2023-03-30T07:27:24.009Z,10.80
2023-03-30T07:30:17.950Z,5.10
2023-03-30T07:32:59.267Z,13.63
2023-03-30T07:35:34.374Z,7.50
2023-03-30T07:38:14.475Z,5.50
2023-03-30T07:40:54.530Z,6.63
2023-03-30T07:43:31.558Z,11.03
2023-03-30T07:46:09.816Z,12.53
2023-03-30T07:48:47.241Z,11.70
2023-03-30T07:51:23.516Z,10.97
2023-03-30T07:54:28.766Z,8.67
2023-03-30T07:57:13.550Z,10.33
2023-03-30T07:59:49.208Z,6.60
2023-03-30T08:02:42.859Z,8.00
2023-03-30T08:05:22.107Z,7.97
2023-03-30T08:08:13.805Z,7.97
2023-03-30T08:10:48.915Z,11.47
2023-03-30T08:13:24.276Z,13.57
2023-03-30T08:16:00.134Z,9.87
2023-03-30T08:18:37.030Z,7.63
2023-03-30T08:21:12.253Z,12.40
2023-03-30T08:23:47.359Z,9.77
2023-03-30T08:26:22.263Z,6.87
2023-03-30T08:28:58.040Z,12.27
2023-03-30T08:31:33.157Z,11.53
2023-03-30T08:34:08.587Z,10.13
2023-03-30T08:36:43.534Z,7.63
2023-03-30T08:39:18.462Z,11.63
2023-03-30T08:42:06.115Z,14.60
2023-03-30T08:44:53.933Z,8.60
2023-03-30T08:47:37.400Z,8.20
2023-03-30T08:50:19.176Z,9.67
2023-03-30T08:52:54.103Z,7.70
2023-03-30T08:55:54.254Z,11.00
2023-03-30T08:58:45.820Z,6.33
2023-03-30T09:01:40.688Z,5.20
2023-03-30T09:04:42.037Z,12.13
2023-03-30T09:07:24.644Z,10.00
2023-03-30T09:10:00.389Z,9.73
2023-03-30T09:12:52.792Z,10.10
2023-03-30T09:15:46.230Z,7.87
2023-03-30T09:18:35.691Z,9.53
2023-03-30T09:21:12.629Z,10.83
2023-03-30T09:23:47.541Z,7.07
2023-03-30T09:26:49.798Z,6.67
2023-03-30T09:29:45.404Z,6.07
2023-03-30T09:32:34.072Z,8.60
2023-03-30T09:35:16.079Z,4.70
2023-03-30T09:37:51.016Z,6.23
2023-03-30T09:40:55.287Z,6.30
2023-03-30T09:43:44.398Z,5.00
2023-03-30T09:46:19.401Z,8.77
2023-03-30T09:48:54.581Z,3.60
2023-03-30T09:51:31.244Z,2.57
2023-03-30T09:54:07.037Z,4.90
2023-03-30T09:56:51.335Z,5.07
2023-03-30T09:59:35.498Z,3.77
2023-03-30T10:02:13.488Z,3.73
2023-03-30T10:04:55.149Z,2.93
2023-03-30T10:07:41.953Z,3.53
2023-03-30T10:10:40.168Z,8.20
2023-03-30T10:13:17.736Z,2.90
2023-03-30T10:15:54.134Z,4.07
2023-03-30T10:18:39.094Z,2.00
2023-03-30T10:21:14.939Z,2.33
2023-03-30T10:24:10.250Z,4.00
2023-03-30T10:26:47.027Z,1.80
2023-03-30T10:29:26.190Z,2.80
2023-03-30T10:32:14.604Z,2.30
2023-03-30T10:35:01.709Z,1.90
2023-03-30T10:37:46.952Z,1.80
2023-03-30T10:40:33.981Z,2.10
2023-03-30T10:43:26.332Z,2.07
2023-03-30T10:46:20.188Z,4.03
2023-03-30T10:49:06.449Z,3.07
2023-03-30T10:52:03.613Z,2.43
2023-03-30T10:54:50.394Z,1.70
2023-03-30T10:58:19.134Z,3.57
2023-03-30T11:00:57.139Z,4.33
2023-03-30T11:03:34.095Z,2.20
2023-03-30T11:06:24.023Z,2.00
2023-03-30T11:09:03.483Z,3.73
2023-03-30T11:11:47.848Z,4.97
2023-03-30T11:14:40.903Z,1.80
2023-03-30T11:18:00.469Z,2.80
2023-03-30T11:20:48.145Z,2.80
2023-03-30T11:23:39.730Z,1.70
2023-03-30T11:26:24.909Z,5.23
2023-03-30T11:29:34.334Z,4.50
2023-03-30T11:32:30.208Z,2.63
2023-03-30T11:35:24.454Z,1.60
2023-03-30T11:38:11.096Z,2.00
2023-03-30T11:41:05.837Z,1.60
2023-03-30T11:43:41.818Z,1.63
2023-03-30T11:46:48.066Z,2.20
2023-03-30T11:49:36.175Z,4.27
2023-03-30T11:53:17.417Z,4.50
2023-03-30T11:56:14.020Z,5.47
2023-03-30T11:59:30.070Z,3.00
2023-03-30T12:02:41.889Z,3.00
2023-03-30T12:05:40.786Z,1.53
2023-03-30T12:08:58.236Z,2.30
2023-03-30T12:11:57.349Z,2.47
2023-03-30T12:15:08.988Z,3.50
2023-03-30T12:18:06.386Z,1.83
2023-03-30T12:21:16.637Z,3.30
2023-03-30T12:24:18.204Z,4.67
2023-03-30T12:27:04.450Z,2.43
2023-03-30T12:32:30.916Z,5.40
2023-03-30T12:35:49.743Z,2.67
2023-03-30T12:38:38.354Z,3.50
2023-03-30T12:41:22.240Z,4.90
2023-03-30T12:44:36.461Z,2.10
2023-03-30T12:47:36.113Z,1.80
2023-03-30T12:50:25.733Z,4.43
2023-03-30T12:53:53.867Z,3.37
2023-03-30T12:57:07.390Z,2.83
2023-03-30T13:00:16.318Z,3.10
2023-03-30T13:03:19.183Z,5.60
2023-03-30T13:06:00.398Z,2.90
2023-03-30T13:08:41.168Z,5.30
2023-03-30T13:11:21.980Z,3.50
2023-03-30T13:14:00.727Z,2.80
2023-03-30T13:16:51.360Z,3.63
2023-03-30T13:19:32.172Z,3.57
2023-03-30T13:22:13.417Z,3.80
2023-03-30T13:25:02.461Z,2.60
2023-03-30T13:27:41.717Z,3.20
2023-03-30T13:30:17.562Z,2.27
2023-03-30T13:33:01.412Z,3.30
2023-03-30T13:35:46.840Z,2.00
2023-03-30T13:38:36.415Z,2.10
2023-03-30T13:41:29.384Z,1.90
2023-03-30T13:44:43.929Z,3.33
2023-03-30T13:47:42.236Z,2.03
2023-03-30T13:50:24.870Z,3.07
2023-03-30T13:53:08.690Z,1.57
2023-03-30T13:55:50.711Z,2.27
2023-03-30T13:58:32.862Z,3.30
2023-03-30T14:01:10.703Z,1.83
2023-03-30T14:03:57.162Z,2.20
2023-03-30T14:06:35.485Z,1.60
2023-03-30T14:09:17.242Z,2.30
2023-03-30T14:12:02.466Z,1.80
2023-03-30T14:14:46.845Z,2.90
2023-03-30T14:17:24.677Z,2.23
2023-03-30T14:20:44.362Z,3.27
2023-03-30T14:23:38.026Z,2.70
2023-03-30T14:26:23.212Z,2.03
2023-03-30T14:29:03.460Z,3.47
2023-03-30T14:31:40.755Z,2.03
2023-03-30T14:34:26.341Z,3.17
2023-03-30T14:37:08.092Z,2.33
2023-03-30T14:39:47.834Z,3.57
2023-03-30T14:42:28.802Z,2.47
2023-03-30T14:45:04.156Z,2.30
2023-03-30T14:47:39.145Z,2.40
2023-03-30T14:50:16.911Z,2.30
2023-03-30T14:52:52.496Z,1.37
2023-03-30T14:55:28.221Z,2.93
2023-03-30T14:58:03.306Z,2.67
2023-03-30T15:00:39.029Z,0.70
2023-03-30T15:03:22.936Z,0.70
2023-03-30T15:06:07.069Z,0.60
2023-03-30T15:08:47.425Z,2.10
2023-03-30T15:11:26.235Z,1.33
2023-03-30T15:14:09.745Z,1.00
2023-03-30T15:16:50.509Z,0.90
2023-03-30T15:19:38.010Z,1.40
2023-03-30T15:22:29.413Z,1.40
2023-03-30T15:25:13.906Z,2.03
2023-03-30T15:28:19.226Z,1.47
2023-03-30T15:30:54.474Z,1.53
2023-03-30T15:33:41.605Z,1.27
2023-03-30T15:36:22.855Z,1.87
2023-03-30T15:38:59.505Z,6.20
2023-03-30T15:42:07.835Z,1.23
2023-03-30T15:44:42.911Z,5.07
2023-03-30T15:47:21.322Z,0.93
2023-03-30T15:49:56.367Z,1.47
2023-03-30T15:52:43.704Z,2.30
2023-03-30T15:55:26.488Z,1.00
2023-03-30T15:58:03.636Z,2.60
2023-03-30T16:00:38.594Z,1.97
2023-03-30T16:03:14.008Z,2.87
2023-03-30T16:05:48.915Z,1.30
2023-03-30T16:08:23.877Z,0.90
2023-03-30T16:10:58.903Z,0.83
2023-03-30T16:13:33.840Z,1.20
2023-03-30T16:16:11.057Z,1.20
2023-03-30T16:18:46.158Z,2.30
2023-03-30T16:21:24.490Z,1.83
2023-03-30T16:23:59.398Z,3.07
2023-03-30T16:26:34.493Z,1.27
2023-03-30T16:29:21.340Z,2.80
2023-03-30T16:31:56.521Z,1.43
2023-03-30T16:34:31.685Z,2.23
2023-03-30T16:37:06.659Z,2.07
2023-03-30T16:39:41.611Z,1.13
2023-03-30T16:42:16.509Z,1.40
2023-03-30T16:44:51.682Z,2.00
2023-03-30T16:47:27.291Z,1.23
2023-03-30T16:50:10.839Z,2.00
2023-03-30T16:52:46.478Z,1.00
2023-03-30T16:55:21.484Z,0.70
2023-03-30T16:57:56.527Z,1.30
2023-03-30T17:00:37.747Z,1.00
2023-03-30T17:03:12.978Z,2.00
2023-03-30T17:05:48.994Z,0.80
2023-03-30T17:08:27.431Z,0.67
2023-03-30T17:11:07.880Z,3.47
2023-03-30T17:13:43.635Z,1.27
2023-03-30T17:16:18.681Z,1.70
2023-03-30T17:18:53.641Z,2.07
2023-03-30T17:21:28.720Z,1.83
2023-03-30T17:24:04.659Z,1.80
2023-03-30T17:26:39.870Z,1.23
2023-03-30T17:29:14.740Z,0.80
2023-03-30T17:31:49.726Z,1.50
2023-03-30T17:34:24.684Z,2.17
2023-03-30T17:36:59.556Z,0.70
2023-03-30T17:39:34.492Z,1.70
2023-03-30T17:42:09.481Z,1.23
2023-03-30T17:44:44.345Z,2.53
2023-03-30T17:47:19.212Z,0.60
2023-03-30T17:49:54.167Z,1.97
2023-03-30T17:52:30.320Z,0.93
2023-03-30T17:55:05.978Z,2.70
2023-03-30T17:57:41.985Z,1.27
2023-03-30T18:00:23.156Z,2.20
2023-03-30T18:03:00.418Z,1.33
2023-03-30T18:05:35.459Z,3.47
2023-03-30T18:08:22.367Z,1.83
2023-03-30T18:11:00.172Z,0.70
2023-03-30T18:13:35.664Z,4.47
2023-03-30T18:16:14.251Z,2.43
2023-03-30T18:18:49.234Z,0.93
2023-03-30T18:21:24.122Z,2.00
2023-03-30T18:23:59.384Z,2.17
2023-03-30T18:26:35.617Z,1.13
2023-03-30T18:29:20.475Z,1.73
2023-03-30T18:31:55.701Z,1.37
2023-03-30T18:34:30.718Z,1.60
2023-03-30T18:37:05.664Z,1.53
2023-03-30T18:39:43.730Z,3.90
2023-03-30T18:42:18.677Z,1.23
2023-03-30T18:44:53.722Z,4.10
2023-03-30T18:47:28.655Z,1.47
2023-03-30T18:50:10.624Z,1.60
2023-03-30T18:52:45.900Z,3.43
2023-03-30T18:55:20.835Z,1.73
2023-03-30T18:57:57.930Z,3.13
2023-03-30T19:00:35.412Z,1.43
2023-03-30T19:03:13.196Z,1.93
2023-03-30T19:05:49.336Z,2.63
2023-03-30T19:08:26.425Z,2.00
2023-03-30T19:11:01.325Z,1.20
2023-03-30T19:13:36.712Z,2.50
2023-03-30T19:16:11.596Z,4.10
2023-03-30T19:18:46.660Z,3.00
2023-03-30T19:21:21.897Z,2.97
2023-03-30T19:23:56.952Z,2.77
2023-03-30T19:26:34.015Z,2.33
2023-03-30T19:29:08.878Z,3.03
2023-03-30T19:31:43.845Z,2.13
2023-03-30T19:34:19.204Z,1.57
2023-03-30T19:36:54.135Z,3.77
2023-03-30T19:39:28.977Z,1.53
2023-03-30T19:42:03.986Z,5.43
2023-03-30T19:44:39.176Z,1.43
2023-03-30T19:47:14.695Z,1.30
2023-03-30T19:49:49.567Z,1.27
2023-03-30T19:52:25.218Z,3.30
2023-03-30T19:55:01.343Z,2.50
2023-03-30T19:57:37.816Z,3.77
2023-03-30T20:00:15.998Z,2.03
2023-03-30T20:02:54.263Z,4.40
2023-03-30T20:05:29.258Z,2.47
2023-03-30T20:08:17.003Z,2.37
2023-03-30T20:10:59.359Z,1.20
2023-03-30T20:13:35.920Z,2.17
2023-03-30T20:16:14.390Z,1.40
2023-03-30T20:18:54.000Z,2.90
2023-03-30T20:21:28.893Z,1.47
2023-03-30T20:24:04.058Z,3.63
2023-03-30T20:26:38.916Z,2.00
2023-03-30T20:29:13.819Z,5.97
2023-03-30T20:31:48.716Z,2.10
2023-03-30T20:34:24.183Z,2.50
2023-03-30T20:36:59.031Z,2.67
2023-03-30T20:39:34.225Z,2.40
2023-03-30T20:42:09.686Z,1.50
2023-03-30T20:44:50.354Z,3.23
2023-03-30T20:47:30.111Z,1.20
2023-03-30T20:50:06.421Z,1.80
2023-03-30T20:52:41.323Z,1.87
2023-03-30T20:55:16.926Z,2.40
2023-03-30T20:57:51.786Z,1.90
2023-03-30T21:00:27.408Z,2.90
2023-03-30T21:03:02.570Z,1.47
2023-03-30T21:05:37.531Z,9.63
2023-03-30T21:08:12.475Z,3.30
2023-03-30T21:10:47.337Z,3.93
2023-03-30T21:13:22.242Z,2.40
2023-03-30T21:15:59.343Z,1.30
2023-03-30T21:18:35.727Z,3.20
2023-03-30T21:21:11.094Z,1.13
2023-03-30T21:23:46.492Z,2.60
2023-03-30T21:26:21.539Z,1.87
2023-03-30T21:28:56.838Z,2.13
2023-03-30T21:31:32.068Z,1.80
2023-03-30T21:34:09.045Z,2.50
2023-03-30T21:36:44.305Z,1.97
2023-03-30T21:39:19.299Z,3.17
2023-03-30T21:41:54.251Z,2.77
2023-03-30T21:44:29.139Z,1.53
2023-03-30T21:47:04.055Z,1.30
2023-03-30T21:49:38.954Z,1.50
2023-03-30T21:52:13.812Z,2.50
2023-03-30T21:54:48.649Z,2.47
2023-03-30T21:57:23.647Z,3.20
2023-03-30T21:59:58.526Z,3.03
2023-03-30T22:02:33.495Z,2.00
2023-03-30T22:05:08.544Z,1.90
2023-03-30T22:07:43.510Z,2.27
2023-03-30T22:10:18.655Z,5.27
2023-03-30T22:12:53.517Z,1.73
2023-03-30T22:15:28.375Z,4.93
2023-03-30T22:18:06.527Z,1.30
2023-03-30T22:20:41.442Z,1.87
2023-03-30T22:23:16.298Z,2.70
2023-03-30T22:25:52.067Z,2.07
2023-03-30T22:28:27.209Z,4.70
2023-03-30T22:31:02.230Z,1.13
2023-03-30T22:33:37.996Z,2.60
2023-03-30T22:36:20.423Z,2.10
2023-03-30T22:38:57.410Z,4.27
2023-03-30T22:41:32.363Z,1.20
2023-03-30T22:44:07.243Z,2.33
2023-03-30T22:46:42.087Z,3.30
2023-03-30T22:49:17.674Z,1.83
2023-03-30T22:51:53.311Z,4.97
2023-03-30T22:54:28.250Z,3.07
2023-03-30T22:57:03.224Z,1.80
2023-03-30T22:59:38.180Z,2.03
2023-03-30T23:02:13.085Z,1.57
2023-03-30T23:04:49.466Z,4.80
2023-03-30T23:07:24.394Z,1.93
2023-03-30T23:10:03.479Z,3.17
2023-03-30T23:12:38.375Z,2.10
2023-03-30T23:15:14.198Z,3.80
2023-03-30T23:17:49.458Z,1.20
2023-03-30T23:20:24.436Z,1.80
2023-03-30T23:22:59.375Z,0.83
2023-03-30T23:25:34.222Z,2.20
2023-03-30T23:28:09.111Z,1.33
2023-03-30T23:30:47.093Z,3.20
2023-03-30T23:33:22.160Z,3.63
2023-03-30T23:35:57.147Z,2.40
2023-03-30T23:38:32.741Z,2.50
2023-03-30T23:41:08.087Z,1.13
2023-03-30T23:43:43.148Z,2.07
2023-03-30T23:46:19.795Z,4.57
2023-03-30T23:48:54.807Z,3.77
2023-03-30T23:51:29.869Z,1.50
2023-03-30T23:54:08.226Z,0.93
2023-03-30T23:56:43.583Z,3.13
2023-03-30T23:59:18.458Z,1.43
